Time;durP1;ratioP1;P1;durP2;ratioP2;P2;SDS_P1;SDS_P2;PMS_P1;PMS_P2;Temp;Humidity;BMP_temperature;BMP_pressure;BME280_temperature;BME280_humidity;BME280_pressure;Samples;Min_cycle;Max_cycle;Signal;HPM_P1;HPM_P2
2023/01/28 00:01:07;;;;;;;2.10;2.00;;;;;;;;;;6219556;28;20301;-75
2023/01/28 00:04:13;;;;;;;2.00;2.00;;;;;;;;;;6235794;28;20302;-75
2023/01/28 00:07:19;;;;;;;2.27;2.17;;;;;;;;;;6219150;28;20313;-75
2023/01/28 00:10:24;;;;;;;3.03;2.07;;;;;;;;;;6236108;28;20289;-75
2023/01/28 00:13:30;;;;;;;3.50;1.93;;;;;;;;;;6236348;28;20289;-75
2023/01/28 00:16:36;;;;;;;1.87;1.80;;;;;;;;;;6236896;28;20295;-75
2023/01/28 00:19:43;;;;;;;2.20;2.10;;;;;;;;;;6218784;28;20297;-75
2023/01/28 00:22:49;;;;;;;3.20;2.20;;;;;;;;;;6192252;28;20353;-75
2023/01/28 00:25:58;;;;;;;3.27;2.47;;;;;;;;;;6236259;28;20296;-74
2023/01/28 00:29:03;;;;;;;1.90;1.90;;;;;;;;;;6235617;28;20297;-74
2023/01/28 00:32:10;;;;;;;1.80;1.80;;;;;;;;;;6219108;28;20298;-75
2023/01/28 00:35:15;;;;;;;1.67;1.67;;;;;;;;;;6218378;28;20319;-75
2023/01/28 00:38:21;;;;;;;2.50;2.30;;;;;;;;;;6217077;28;20290;-75
2023/01/28 00:41:28;;;;;;;1.80;1.80;;;;;;;;;;6236169;28;20458;-75
2023/01/28 00:44:35;;;;;;;1.97;1.90;;;;;;;;;;6235701;28;20587;-75
2023/01/28 00:47:43;;;;;;;1.50;1.50;;;;;;;;;;6236705;28;20293;-77
2023/01/28 00:50:49;;;;;;;1.80;1.70;;;;;;;;;;6236173;28;20306;-76
2023/01/28 00:53:54;;;;;;;1.47;1.47;;;;;;;;;;6235316;28;20298;-76
2023/01/28 00:57:00;;;;;;;1.60;1.60;;;;;;;;;;6218637;28;20291;-76
2023/01/28 01:00:06;;;;;;;1.50;1.50;;;;;;;;;;6235188;28;20622;-75
2023/01/28 01:03:14;;;;;;;1.50;1.50;;;;;;;;;;6235154;28;20294;-74
2023/01/28 01:06:21;;;;;;;2.23;1.73;;;;;;;;;;6218506;28;20302;-75
2023/01/28 01:09:26;;;;;;;1.90;1.77;;;;;;;;;;6235236;28;20303;-74
2023/01/28 01:12:31;;;;;;;1.50;1.50;;;;;;;;;;6235992;28;20330;-75
2023/01/28 01:15:38;;;;;;;1.70;1.70;;;;;;;;;;6235283;28;20301;-75
2023/01/28 01:18:45;;;;;;;1.43;1.33;;;;;;;;;;6235038;28;20491;-75
2023/01/28 01:21:51;;;;;;;3.57;1.60;;;;;;;;;;6235851;28;20290;-75
2023/01/28 01:24:57;;;;;;;1.80;1.50;;;;;;;;;;6235502;28;20302;-75
2023/01/28 01:28:03;;;;;;;1.60;1.60;;;;;;;;;;6234274;28;20495;-75
2023/01/28 01:31:12;;;;;;;1.67;1.57;;;;;;;;;;6218393;28;20292;-75
2023/01/28 01:34:19;;;;;;;1.20;1.20;;;;;;;;;;6234587;28;20307;-75
2023/01/28 01:37:26;;;;;;;1.30;1.30;;;;;;;;;;6218190;28;20302;-74
2023/01/28 01:40:31;;;;;;;1.50;1.50;;;;;;;;;;6235230;28;20479;-75
2023/01/28 01:43:48;;;;;;;3.13;1.43;;;;;;;;;;6217964;28;20593;-75
2023/01/28 01:46:54;;;;;;;1.20;1.20;;;;;;;;;;6234449;28;20310;-75
2023/01/28 01:50:05;;;;;;;1.30;1.30;;;;;;;;;;6235281;28;20302;-74
2023/01/28 01:53:14;;;;;;;1.17;1.17;;;;;;;;;;6222091;28;20480;-75
2023/01/28 01:56:23;;;;;;;1.40;1.40;;;;;;;;;;6222312;28;20302;-74
2023/01/28 01:59:31;;;;;;;1.30;1.30;;;;;;;;;;6223381;28;20293;-74
2023/01/28 02:02:39;;;;;;;1.40;1.23;;;;;;;;;;6232749;23;20294;-84
2023/01/28 02:05:46;;;;;;;1.13;1.13;;;;;;;;;;6178276;28;20300;-85
2023/01/28 02:08:55;;;;;;;1.27;1.27;;;;;;;;;;6194593;28;20284;-84
2023/01/28 02:12:03;;;;;;;2.30;1.20;;;;;;;;;;6207165;28;20261;-84
2023/01/28 02:15:10;;;;;;;1.23;1.23;;;;;;;;;;6206461;28;20258;-84
2023/01/28 02:18:15;;;;;;;1.43;1.43;;;;;;;;;;6190060;28;20296;-84
2023/01/28 02:22:00;;;;;;;1.40;1.40;;;;;;;;;;6206735;28;20259;-84
2023/01/28 02:25:34;;;;;;;1.23;1.23;;;;;;;;;;6190038;28;20286;-84
2023/01/28 02:28:46;;;;;;;1.53;1.20;;;;;;;;;;6157566;28;20295;-86
2023/01/28 02:31:57;;;;;;;1.17;1.17;;;;;;;;;;6178017;28;20275;-86
2023/01/28 02:35:06;;;;;;;1.13;1.13;;;;;;;;;;6177599;28;20301;-84
2023/01/28 02:38:17;;;;;;;1.00;1.00;;;;;;;;;;6188432;28;20603;-84
2023/01/28 02:41:25;;;;;;;1.37;1.37;;;;;;;;;;6178108;28;20299;-83
2023/01/28 02:44:33;;;;;;;1.10;1.10;;;;;;;;;;6176745;28;20297;-86
2023/01/28 02:51:05;;;;;;;1.10;1.10;;;;;;;;;;6188299;28;20289;-85
2023/01/28 02:54:14;;;;;;;1.13;1.13;;;;;;;;;;6172724;28;20300;-86
2023/01/28 02:57:29;;;;;;;2.67;1.23;;;;;;;;;;6190168;28;20307;-85
2023/01/28 03:00:44;;;;;;;1.27;1.17;;;;;;;;;;6172222;28;20484;-84
2023/01/28 03:03:58;;;;;;;1.07;1.07;;;;;;;;;;6205585;28;20293;-86
2023/01/28 03:07:07;;;;;;;1.10;1.10;;;;;;;;;;6197077;28;20304;-85
2023/01/28 03:10:15;;;;;;;1.30;1.20;;;;;;;;;;6213309;28;20337;-86
2023/01/28 03:37:38;;;;;;;1.10;1.10;;;;;;;;;;6196918;28;20298;-86
2023/01/28 03:41:03;;;;;;;1.10;1.10;;;;;;;;;;6212167;28;20301;-86
2023/01/28 03:47:31;;;;;;;1.23;1.10;;;;;;;;;;6196407;28;20307;-86
2023/01/28 03:50:40;;;;;;;1.23;1.23;;;;;;;;;;6195957;28;20294;-86
2023/01/28 03:53:45;;;;;;;1.33;1.23;;;;;;;;;;6198091;28;20431;-85
2023/01/28 03:56:51;;;;;;;1.20;1.20;;;;;;;;;;6199676;28;20291;-86
2023/01/28 03:59:56;;;;;;;1.00;1.00;;;;;;;;;;6198018;28;20302;-85
2023/01/28 04:03:02;;;;;;;1.40;1.13;;;;;;;;;;6185921;28;20298;-86
2023/01/28 04:06:10;;;;;;;1.10;1.10;;;;;;;;;;6212387;28;20316;-85
2023/01/28 04:09:33;;;;;;;1.23;0.90;;;;;;;;;;6211740;28;20308;-85
2023/01/28 04:12:55;;;;;;;1.97;1.17;;;;;;;;;;6171121;28;20300;-86
2023/01/28 04:16:02;;;;;;;1.57;1.17;;;;;;;;;;6187591;28;20299;-85
2023/01/28 04:19:13;;;;;;;1.00;1.00;;;;;;;;;;6196075;28;20306;-85
2023/01/28 04:22:20;;;;;;;1.53;1.00;;;;;;;;;;6195812;28;20299;-85
2023/01/28 04:25:27;;;;;;;1.00;1.00;;;;;;;;;;6195334;28;20590;-85
2023/01/28 04:28:33;;;;;;;1.07;1.07;;;;;;;;;;6194377;28;20489;-85
2023/01/28 04:31:39;;;;;;;1.07;1.07;;;;;;;;;;6195357;28;20303;-85
2023/01/28 04:34:59;;;;;;;2.00;1.10;;;;;;;;;;6210829;28;20305;-86
2023/01/28 04:38:20;;;;;;;3.90;1.10;;;;;;;;;;6170464;28;20296;-86
2023/01/28 04:41:46;;;;;;;0.90;0.90;;;;;;;;;;6188337;28;20300;-85
2023/01/28 04:44:57;;;;;;;0.90;0.90;;;;;;;;;;6171023;28;20313;-84
2023/01/28 04:48:26;;;;;;;1.00;1.00;;;;;;;;;;6172753;28;20294;-84
2023/01/28 04:51:49;;;;;;;1.70;1.10;;;;;;;;;;6190036;28;20289;-85
2023/01/28 04:55:12;;;;;;;2.73;1.00;;;;;;;;;;6171769;28;20306;-85
2023/01/28 04:58:18;;;;;;;2.57;1.00;;;;;;;;;;6171176;28;20296;-84
2023/01/28 05:01:26;;;;;;;0.90;0.90;;;;;;;;;;6170400;28;20293;-84
2023/01/28 05:04:32;;;;;;;2.43;1.00;;;;;;;;;;6161642;29;20617;-85
2023/01/28 05:07:38;;;;;;;1.50;0.90;;;;;;;;;;6178296;28;20420;-85
2023/01/28 05:10:45;;;;;;;0.90;0.90;;;;;;;;;;6181077;28;20362;-85
2023/01/28 05:13:51;;;;;;;2.20;1.10;;;;;;;;;;6182011;28;20478;-85
2023/01/28 05:16:57;;;;;;;2.60;0.97;;;;;;;;;;6162131;28;20272;-86
2023/01/28 05:20:02;;;;;;;0.87;0.87;;;;;;;;;;6177622;28;20415;-85
2023/01/28 05:23:09;;;;;;;1.00;1.00;;;;;;;;;;6176999;28;20289;-86
2023/01/28 05:26:48;;;;;;;1.10;1.10;;;;;;;;;;6163548;28;20301;-85
2023/01/28 05:29:54;;;;;;;1.30;0.80;;;;;;;;;;6182457;28;20305;-85
2023/01/28 05:32:59;;;;;;;0.90;0.90;;;;;;;;;;6166347;28;20332;-84
2023/01/28 05:36:05;;;;;;;0.77;0.77;;;;;;;;;;6182868;28;20309;-86
2023/01/28 05:39:10;;;;;;;1.27;1.20;;;;;;;;;;6166844;28;20312;-85
2023/01/28 05:42:19;;;;;;;0.90;0.90;;;;;;;;;;6167064;29;20293;-84
2023/01/28 05:45:27;;;;;;;2.87;0.90;;;;;;;;;;6166241;29;20477;-84
2023/01/28 05:48:59;;;;;;;1.70;1.10;;;;;;;;;;6165654;28;20606;-85
2023/01/28 05:52:23;;;;;;;1.50;1.30;;;;;;;;;;6167367;28;20305;-85
2023/01/28 05:55:28;;;;;;;1.00;1.00;;;;;;;;;;6182318;28;20297;-85
2023/01/28 05:58:35;;;;;;;1.90;1.10;;;;;;;;;;6166149;28;20306;-85
2023/01/28 06:01:40;;;;;;;1.10;1.00;;;;;;;;;;6182610;28;20320;-83
2023/01/28 06:04:46;;;;;;;1.10;0.80;;;;;;;;;;6167011;28;20301;-85
2023/01/28 06:07:52;;;;;;;1.10;1.00;;;;;;;;;;6181396;28;20279;-84
2023/01/28 06:10:57;;;;;;;1.17;1.00;;;;;;;;;;6193846;28;20288;-84
2023/01/28 06:14:04;;;;;;;5.47;1.07;;;;;;;;;;6190068;28;20332;-84
2023/01/28 06:17:22;;;;;;;0.90;0.90;;;;;;;;;;6191705;28;20297;-85
2023/01/28 06:20:49;;;;;;;2.30;0.97;;;;;;;;;;6191120;28;20606;-85
2023/01/28 06:23:55;;;;;;;1.13;1.13;;;;;;;;;;6205599;28;20318;-86
2023/01/28 06:27:00;;;;;;;1.20;1.10;;;;;;;;;;6190982;28;20294;-86
2023/01/28 06:30:10;;;;;;;1.70;0.90;;;;;;;;;;6205104;28;20311;-86
2023/01/28 06:33:15;;;;;;;4.00;1.00;;;;;;;;;;6190579;28;20578;-86
2023/01/28 06:36:20;;;;;;;1.37;0.80;;;;;;;;;;6190176;28;20381;-86
2023/01/28 06:39:28;;;;;;;3.13;1.10;;;;;;;;;;6190566;28;20301;-86
2023/01/28 06:42:33;;;;;;;1.90;1.10;;;;;;;;;;6190569;28;20470;-86
2023/01/28 06:45:39;;;;;;;0.90;0.90;;;;;;;;;;6190347;28;20470;-85
2023/01/28 06:48:45;;;;;;;1.13;1.13;;;;;;;;;;6205909;28;20298;-86
2023/01/28 06:51:50;;;;;;;4.70;1.00;;;;;;;;;;6190621;28;20303;-86
2023/01/28 06:54:55;;;;;;;1.00;1.00;;;;;;;;;;6205583;28;20301;-86
2023/01/28 06:58:00;;;;;;;3.80;1.53;;;;;;;;;;6194007;28;20297;-86
2023/01/28 07:01:07;;;;;;;1.93;1.10;;;;;;;;;;6194392;28;20291;-86
2023/01/28 07:04:12;;;;;;;3.37;1.20;;;;;;;;;;6210234;28;20623;-86
2023/01/28 07:07:18;;;;;;;1.07;1.07;;;;;;;;;;6215217;28;20392;-85
2023/01/28 07:10:23;;;;;;;3.30;1.13;;;;;;;;;;6218207;28;20304;-86
2023/01/28 07:13:28;;;;;;;1.50;1.17;;;;;;;;;;6239411;28;20614;-84
2023/01/28 07:16:34;;;;;;;3.00;1.20;;;;;;;;;;6247897;28;20284;-84
2023/01/28 07:19:40;;;;;;;1.20;1.10;;;;;;;;;;6254032;28;20251;-83
2023/01/28 07:22:45;;;;;;;1.43;1.33;;;;;;;;;;6254371;28;20270;-84
2023/01/28 07:25:51;;;;;;;4.87;1.30;;;;;;;;;;6245282;28;20300;-84
2023/01/28 07:28:56;;;;;;;5.10;1.43;;;;;;;;;;6241799;28;20297;-85
2023/01/28 07:32:03;;;;;;;2.30;1.10;;;;;;;;;;6240317;28;20294;-85
2023/01/28 07:35:09;;;;;;;1.80;1.10;;;;;;;;;;6237333;28;20295;-85
2023/01/28 07:38:15;;;;;;;1.47;1.30;;;;;;;;;;6219812;28;20295;-86
2023/01/28 07:41:20;;;;;;;1.30;1.30;;;;;;;;;;6237561;28;20292;-85
2023/01/28 07:44:25;;;;;;;2.63;1.80;;;;;;;;;;6219843;28;20344;-85
2023/01/28 07:47:31;;;;;;;1.80;1.30;;;;;;;;;;6236899;28;20294;-85
2023/01/28 07:50:38;;;;;;;2.90;1.30;;;;;;;;;;6219495;28;20348;-86
2023/01/28 07:53:44;;;;;;;1.40;1.30;;;;;;;;;;6236742;28;20566;-87
2023/01/28 07:56:49;;;;;;;2.60;1.60;;;;;;;;;;6237655;28;20473;-87
2023/01/28 07:59:54;;;;;;;1.70;1.50;;;;;;;;;;6237179;28;20366;-85
2023/01/28 08:03:02;;;;;;;3.57;1.33;;;;;;;;;;6236467;28;20331;-86
2023/01/28 08:06:07;;;;;;;5.03;1.50;;;;;;;;;;6237466;28;20292;-85
2023/01/28 08:09:12;;;;;;;4.80;1.70;;;;;;;;;;6236530;28;20567;-85
2023/01/28 08:12:18;;;;;;;2.57;1.50;;;;;;;;;;6232382;28;20485;-85
2023/01/28 08:15:23;;;;;;;5.13;1.90;;;;;;;;;;6236345;28;20289;-84
2023/01/28 08:18:30;;;;;;;3.60;1.40;;;;;;;;;;6236660;28;20480;-85
2023/01/28 08:21:35;;;;;;;2.50;1.53;;;;;;;;;;6221212;28;20300;-85
2023/01/28 08:24:40;;;;;;;3.07;1.60;;;;;;;;;;6221603;28;20300;-85
2023/01/28 08:27:46;;;;;;;4.03;1.40;;;;;;;;;;6238359;28;20292;-84
2023/01/28 08:30:51;;;;;;;3.23;1.60;;;;;;;;;;6237586;28;20305;-85
2023/01/28 08:33:58;;;;;;;4.63;1.70;;;;;;;;;;6237217;28;20292;-85
2023/01/28 08:37:05;;;;;;;2.60;1.43;;;;;;;;;;6238878;28;20421;-84
2023/01/28 08:40:13;;;;;;;3.07;1.70;;;;;;;;;;6219200;28;20296;-85
2023/01/28 08:43:19;;;;;;;1.90;1.67;;;;;;;;;;6236295;28;20295;-87
2023/01/28 08:46:24;;;;;;;3.70;1.60;;;;;;;;;;6236488;28;20308;-87
2023/01/28 08:49:31;;;;;;;1.97;1.87;;;;;;;;;;6236082;28;20293;-86
2023/01/28 08:52:36;;;;;;;5.70;1.90;;;;;;;;;;6236797;28;20292;-87
2023/01/28 08:55:41;;;;;;;1.70;1.60;;;;;;;;;;6209340;28;20300;-85
2023/01/28 08:58:47;;;;;;;4.23;2.17;;;;;;;;;;6235514;28;20404;-85
2023/01/28 09:01:52;;;;;;;2.03;1.80;;;;;;;;;;6233409;28;20446;-83
2023/01/28 09:04:59;;;;;;;3.27;2.00;;;;;;;;;;6235221;28;20428;-82
2023/01/28 09:08:05;;;;;;;2.00;1.90;;;;;;;;;;6218095;28;20273;-85
2023/01/28 09:11:10;;;;;;;1.93;1.43;;;;;;;;;;6213678;28;20294;-84
2023/01/28 09:14:15;;;;;;;4.20;2.00;;;;;;;;;;6234935;28;20297;-83
2023/01/28 09:17:21;;;;;;;4.93;1.87;;;;;;;;;;6218238;28;20287;-81
2023/01/28 09:20:27;;;;;;;6.50;1.70;;;;;;;;;;6234721;28;20305;-81
2023/01/28 09:23:35;;;;;;;2.00;1.73;;;;;;;;;;6235112;28;20597;-80
2023/01/28 09:26:43;;;;;;;3.73;1.47;;;;;;;;;;6235599;28;20301;-81
2023/01/28 09:29:48;;;;;;;1.70;1.70;;;;;;;;;;6234562;28;20322;-80
2023/01/28 09:32:54;;;;;;;2.47;1.80;;;;;;;;;;6234977;28;20297;-82
2023/01/28 09:36:02;;;;;;;2.93;1.63;;;;;;;;;;6236015;28;20294;-87
2023/01/28 09:39:08;;;;;;;10.53;2.13;;;;;;;;;;6235290;28;20289;-88
2023/01/28 09:42:30;;;;;;;3.77;1.37;;;;;;;;;;6236713;28;20598;-89
2023/01/28 09:45:38;;;;;;;2.30;2.00;;;;;;;;;;6218652;28;20299;-88
2023/01/28 09:48:47;;;;;;;3.77;1.80;;;;;;;;;;6234621;28;20303;-82
2023/01/28 09:51:56;;;;;;;3.67;1.80;;;;;;;;;;6235400;28;20310;-84
2023/01/28 09:55:04;;;;;;;1.83;1.50;;;;;;;;;;6235291;28;20311;-87
2023/01/28 09:58:14;;;;;;;3.00;1.77;;;;;;;;;;6218735;28;20606;-87
2023/01/28 10:01:38;;;;;;;5.30;1.73;;;;;;;;;;6218998;28;20328;-85
2023/01/28 10:04:52;;;;;;;1.93;1.80;;;;;;;;;;6236283;28;20301;-82
2023/01/28 10:08:06;;;;;;;7.30;1.97;;;;;;;;;;6217499;28;20407;-84
2023/01/28 10:11:18;;;;;;;5.20;1.80;;;;;;;;;;6232345;28;20300;-83
2023/01/28 10:14:32;;;;;;;4.97;1.70;;;;;;;;;;6238538;28;20293;-84
2023/01/28 10:17:41;;;;;;;1.70;1.60;;;;;;;;;;6239314;28;20293;-82
2023/01/28 10:20:49;;;;;;;1.73;1.53;;;;;;;;;;6239254;28;20450;-88
2023/01/28 10:24:00;;;;;;;5.40;2.40;;;;;;;;;;6222003;28;20375;-87
2023/01/28 10:27:11;;;;;;;3.27;1.60;;;;;;;;;;6239959;28;20298;-88
2023/01/28 10:30:19;;;;;;;4.43;1.53;;;;;;;;;;6238242;28;20373;-81
2023/01/28 10:33:31;;;;;;;4.23;1.70;;;;;;;;;;6238452;28;20290;-84
2023/01/28 10:36:36;;;;;;;5.30;1.80;;;;;;;;;;6239559;28;20541;-86
2023/01/28 10:39:43;;;;;;;5.87;1.80;;;;;;;;;;6238070;28;20301;-80
2023/01/28 10:42:49;;;;;;;2.17;1.67;;;;;;;;;;6238985;28;20295;-86
2023/01/28 10:45:59;;;;;;;2.00;1.80;;;;;;;;;;6238742;28;20294;-80
2023/01/28 10:49:11;;;;;;;2.33;1.47;;;;;;;;;;6237660;28;20294;-85
2023/01/28 10:52:17;;;;;;;2.47;1.47;;;;;;;;;;6221431;28;20588;-85
2023/01/28 10:55:26;;;;;;;5.00;1.53;;;;;;;;;;6238638;28;20312;-85
2023/01/28 10:58:34;;;;;;;2.73;1.50;;;;;;;;;;6238162;28;20300;-85
2023/01/28 11:01:40;;;;;;;6.27;1.77;;;;;;;;;;6221991;28;20307;-85
2023/01/28 11:04:49;;;;;;;2.17;1.50;;;;;;;;;;6237030;28;20321;-86
2023/01/28 11:08:06;;;;;;;1.67;1.30;;;;;;;;;;6221593;28;20280;-86
2023/01/28 11:11:16;;;;;;;4.67;1.53;;;;;;;;;;6234973;28;20286;-88
2023/01/28 11:14:23;;;;;;;1.87;1.50;;;;;;;;;;6238590;28;20475;-87
2023/01/28 11:17:30;;;;;;;3.73;1.73;;;;;;;;;;6239037;28;20296;-88
2023/01/28 11:20:38;;;;;;;1.40;1.40;;;;;;;;;;6238428;28;20601;-86
2023/01/28 11:23:51;;;;;;;5.17;1.70;;;;;;;;;;6236686;28;20301;-84
2023/01/28 11:26:59;;;;;;;2.30;1.67;;;;;;;;;;6237896;28;20285;-86
2023/01/28 11:30:21;;;;;;;4.30;1.60;;;;;;;;;;6220159;28;20296;-85
2023/01/28 11:33:31;;;;;;;6.13;1.53;;;;;;;;;;6220874;28;20303;-85
2023/01/28 11:36:36;;;;;;;4.50;1.80;;;;;;;;;;6238072;28;20290;-86
2023/01/28 11:39:42;;;;;;;5.53;1.83;;;;;;;;;;6236650;28;20583;-84
2023/01/28 11:42:50;;;;;;;1.50;1.40;;;;;;;;;;6238664;28;20327;-85
2023/01/28 11:46:04;;;;;;;5.10;1.50;;;;;;;;;;6237918;28;20287;-85
2023/01/28 11:49:19;;;;;;;2.10;1.40;;;;;;;;;;6237153;28;20291;-84
2023/01/28 11:52:31;;;;;;;1.57;1.20;;;;;;;;;;6220397;28;20300;-86
2023/01/28 11:56:09;;;;;;;4.70;1.37;;;;;;;;;;6236519;28;20287;-85
2023/01/28 11:59:35;;;;;;;5.93;1.50;;;;;;;;;;6239528;28;20288;-87
2023/01/28 12:02:49;;;;;;;3.27;1.50;;;;;;;;;;6237059;28;20599;-85
2023/01/28 12:05:56;;;;;;;1.23;1.23;;;;;;;;;;6219442;28;20306;-89
2023/01/28 12:09:13;;;;;;;6.37;1.53;;;;;;;;;;6237087;28;20307;-85
2023/01/28 12:12:38;;;;;;;1.50;1.40;;;;;;;;;;6233291;28;20301;-86
2023/01/28 12:16:02;;;;;;;3.03;1.30;;;;;;;;;;6235750;28;20300;-86
2023/01/28 12:19:22;;;;;;;2.27;1.43;;;;;;;;;;6219537;28;20288;-84
2023/01/28 12:22:50;;;;;;;1.10;1.10;;;;;;;;;;6237333;28;20479;-84
2023/01/28 12:26:05;;;;;;;1.30;1.20;;;;;;;;;;6234446;28;20291;-86
2023/01/28 12:29:23;;;;;;;5.13;1.63;;;;;;;;;;6238735;28;20475;-85
2023/01/28 12:32:53;;;;;;;2.70;1.53;;;;;;;;;;6240460;28;20464;-86
2023/01/28 12:36:06;;;;;;;3.47;1.40;;;;;;;;;;6219971;28;20311;-85
2023/01/28 12:39:20;;;;;;;2.37;1.70;;;;;;;;;;6236345;28;20292;-86
2023/01/28 12:42:33;;;;;;;5.87;1.57;;;;;;;;;;6236868;28;20607;-86
2023/01/28 12:45:41;;;;;;;3.53;1.30;;;;;;;;;;6226331;28;20304;-86
2023/01/28 12:48:49;;;;;;;3.27;1.63;;;;;;;;;;6237050;28;20292;-87
2023/01/28 12:52:03;;;;;;;4.53;1.40;;;;;;;;;;6236602;28;20292;-85
2023/01/28 12:55:15;;;;;;;2.43;1.37;;;;;;;;;;6235902;28;20301;-86
2023/01/28 12:58:25;;;;;;;2.20;1.77;;;;;;;;;;6236174;28;20296;-86
2023/01/28 13:01:37;;;;;;;2.23;1.37;;;;;;;;;;6218890;28;20304;-84
2023/01/28 13:04:49;;;;;;;2.03;1.40;;;;;;;;;;6211199;28;20304;-85
2023/01/28 13:07:57;;;;;;;1.87;1.73;;;;;;;;;;6210961;28;20276;-85
2023/01/28 13:11:03;;;;;;;3.63;1.40;;;;;;;;;;6215098;28;20263;-85
2023/01/28 13:14:10;;;;;;;1.47;1.30;;;;;;;;;;6226886;28;20297;-85
2023/01/28 13:17:27;;;;;;;1.53;1.40;;;;;;;;;;6227748;28;20326;-84
2023/01/28 13:20:48;;;;;;;3.60;1.30;;;;;;;;;;6220027;28;20345;-86
2023/01/28 13:24:06;;;;;;;3.03;1.40;;;;;;;;;;6215667;28;20299;-86
2023/01/28 13:27:21;;;;;;;3.20;1.50;;;;;;;;;;6212054;28;20301;-85
2023/01/28 13:30:29;;;;;;;2.60;1.40;;;;;;;;;;6193844;28;20305;-85
2023/01/28 13:33:35;;;;;;;7.40;1.70;;;;;;;;;;6210785;28;20300;-85
2023/01/28 13:36:46;;;;;;;1.40;1.30;;;;;;;;;;6211403;28;20306;-85
2023/01/28 13:39:52;;;;;;;2.43;1.50;;;;;;;;;;6210517;28;20308;-84
2023/01/28 13:43:02;;;;;;;2.30;1.40;;;;;;;;;;6210577;28;20289;-85
2023/01/28 13:46:10;;;;;;;4.27;1.43;;;;;;;;;;6212152;28;20308;-83
2023/01/28 13:49:17;;;;;;;2.90;1.37;;;;;;;;;;6214997;28;20330;-84
2023/01/28 13:52:28;;;;;;;1.33;1.20;;;;;;;;;;6215288;28;20293;-83
2023/01/28 13:55:36;;;;;;;1.20;1.17;;;;;;;;;;6214301;28;20306;-85
2023/01/28 13:59:24;;;;;;;3.17;1.50;;;;;;;;;;6213679;28;20294;-84
2023/01/28 14:02:40;;;;;;;2.70;1.13;;;;;;;;;;6220802;28;20422;-84
2023/01/28 14:06:17;;;;;;;1.70;1.10;;;;;;;;;;6231044;28;20346;-85
2023/01/28 14:09:51;;;;;;;6.20;1.57;;;;;;;;;;6238745;28;20295;-82
2023/01/28 14:13:15;;;;;;;1.00;1.00;;;;;;;;;;6214316;28;20301;-83
2023/01/28 14:16:32;;;;;;;2.73;1.20;;;;;;;;;;6214809;28;20289;-84
2023/01/28 14:19:38;;;;;;;1.23;1.13;;;;;;;;;;6197280;28;20297;-82
2023/01/28 14:22:44;;;;;;;2.07;1.27;;;;;;;;;;6214797;28;20315;-84
2023/01/28 14:25:59;;;;;;;3.53;1.33;;;;;;;;;;6195674;28;20301;-84
2023/01/28 14:29:22;;;;;;;3.70;1.30;;;;;;;;;;6213782;28;20299;-85
2023/01/28 14:32:30;;;;;;;4.50;1.17;;;;;;;;;;6215094;28;20288;-84
2023/01/28 14:35:37;;;;;;;4.13;1.27;;;;;;;;;;6213616;28;20298;-85
2023/01/28 14:38:43;;;;;;;1.17;1.17;;;;;;;;;;6218605;28;20288;-82
2023/01/28 14:41:52;;;;;;;7.13;1.30;;;;;;;;;;6229991;28;20249;-85
2023/01/28 14:45:08;;;;;;;3.37;1.20;;;;;;;;;;6230218;28;20249;-82
2023/01/28 14:48:25;;;;;;;3.77;1.40;;;;;;;;;;6213378;28;22708;-84
2023/01/28 14:52:09;;;;;;;2.67;1.30;;;;;;;;;;6230985;28;20256;-83
2023/01/28 14:55:28;;;;;;;1.83;1.23;;;;;;;;;;6171005;28;20494;-83
2023/01/28 14:58:39;;;;;;;2.73;1.13;;;;;;;;;;6214283;28;20302;-86
2023/01/28 15:01:46;;;;;;;5.00;1.90;;;;;;;;;;6216816;28;20621;-80
2023/01/28 15:04:54;;;;;;;3.33;1.43;;;;;;;;;;6214371;28;20296;-84
2023/01/28 15:08:00;;;;;;;2.93;1.30;;;;;;;;;;6179634;28;20281;-83
2023/01/28 15:11:08;;;;;;;2.40;1.67;;;;;;;;;;6213141;28;20272;-83
2023/01/28 15:14:20;;;;;;;4.57;1.90;;;;;;;;;;6212612;28;20366;-82
2023/01/28 15:17:27;;;;;;;3.87;1.50;;;;;;;;;;6213413;28;20298;-82
2023/01/28 15:20:36;;;;;;;3.80;1.43;;;;;;;;;;6211274;28;20288;-82
2023/01/28 15:23:42;;;;;;;3.83;1.50;;;;;;;;;;6212206;28;20324;-82
2023/01/28 15:26:48;;;;;;;1.47;1.47;;;;;;;;;;6196144;28;20300;-81
2023/01/28 15:29:57;;;;;;;5.00;1.97;;;;;;;;;;6212948;28;20296;-83
2023/01/28 15:33:04;;;;;;;1.90;1.80;;;;;;;;;;6213303;28;20297;-82
2023/01/28 15:36:11;;;;;;;3.37;1.90;;;;;;;;;;6212602;28;20297;-82
2023/01/28 15:39:17;;;;;;;4.33;1.53;;;;;;;;;;6211578;28;20300;-82
2023/01/28 15:42:25;;;;;;;2.67;1.30;;;;;;;;;;6212868;28;20299;-81
2023/01/28 15:45:32;;;;;;;2.07;1.40;;;;;;;;;;6212312;28;20304;-81
2023/01/28 15:48:48;;;;;;;6.23;1.83;;;;;;;;;;6211882;28;20308;-82
2023/01/28 15:51:54;;;;;;;6.97;1.80;;;;;;;;;;6195258;28;20297;-81
2023/01/28 15:54:59;;;;;;;2.07;2.00;;;;;;;;;;6211115;28;20482;-82
2023/01/28 15:58:27;;;;;;;3.80;2.17;;;;;;;;;;6212245;28;20291;-81
2023/01/28 16:01:34;;;;;;;2.00;1.70;;;;;;;;;;6208877;28;20560;-82
2023/01/28 16:04:40;;;;;;;7.47;2.17;;;;;;;;;;6194075;28;20300;-82
2023/01/28 16:07:46;;;;;;;4.77;1.70;;;;;;;;;;6210847;28;20303;-81
2023/01/28 16:10:53;;;;;;;1.80;1.70;;;;;;;;;;6210349;28;20307;-81
2023/01/28 16:13:59;;;;;;;6.33;1.80;;;;;;;;;;6210771;28;20300;-80
2023/01/28 16:17:06;;;;;;;1.80;1.70;;;;;;;;;;6211397;28;20298;-82
2023/01/28 16:20:22;;;;;;;3.23;1.60;;;;;;;;;;6194307;28;20317;-82
2023/01/28 16:23:31;;;;;;;2.60;1.50;;;;;;;;;;6210787;28;20288;-81
2023/01/28 16:26:40;;;;;;;4.10;1.50;;;;;;;;;;6210658;28;20296;-81
2023/01/28 16:29:45;;;;;;;5.23;1.77;;;;;;;;;;6195235;28;20581;-83
2023/01/28 16:32:54;;;;;;;6.03;1.90;;;;;;;;;;6187484;28;20296;-82
2023/01/28 16:35:59;;;;;;;2.57;1.50;;;;;;;;;;6187040;28;20298;-82
2023/01/28 16:39:13;;;;;;;3.17;1.67;;;;;;;;;;6187867;28;20287;-83
2023/01/28 16:42:20;;;;;;;4.20;1.80;;;;;;;;;;6187841;28;20289;-82
2023/01/28 16:45:26;;;;;;;2.77;1.50;;;;;;;;;;6189543;28;20314;-82
2023/01/28 16:48:36;;;;;;;2.10;2.00;;;;;;;;;;6186426;28;20573;-83
2023/01/28 16:51:43;;;;;;;1.90;1.77;;;;;;;;;;6187293;28;20311;-82
2023/01/28 16:54:48;;;;;;;4.57;2.03;;;;;;;;;;6188790;28;20308;-84
2023/01/28 16:57:54;;;;;;;2.47;1.90;;;;;;;;;;6186191;28;20301;-81
2023/01/28 17:01:00;;;;;;;2.70;1.73;;;;;;;;;;6187148;28;20293;-82
2023/01/28 17:04:08;;;;;;;5.83;1.90;;;;;;;;;;6186709;28;20315;-81
2023/01/28 17:07:19;;;;;;;2.07;1.97;;;;;;;;;;6170345;28;20394;-82
2023/01/28 17:10:24;;;;;;;3.60;1.93;;;;;;;;;;6194581;28;20510;-82
2023/01/28 17:13:29;;;;;;;2.27;1.70;;;;;;;;;;6217040;28;20332;-82
2023/01/28 17:16:34;;;;;;;1.97;1.80;;;;;;;;;;6233006;28;20301;-82
2023/01/28 17:19:41;;;;;;;2.50;1.93;;;;;;;;;;6234258;28;20321;-82
2023/01/28 17:22:47;;;;;;;6.50;1.97;;;;;;;;;;6221567;28;20309;-81
2023/01/28 17:25:52;;;;;;;1.83;1.80;;;;;;;;;;6239204;28;20292;-82
2023/01/28 17:28:57;;;;;;;1.73;1.63;;;;;;;;;;6239480;28;20436;-83
2023/01/28 17:32:05;;;;;;;1.90;1.80;;;;;;;;;;6239570;28;20277;-83
2023/01/28 17:35:13;;;;;;;5.53;2.20;;;;;;;;;;6239760;28;20291;-83
2023/01/28 17:38:19;;;;;;;2.80;1.93;;;;;;;;;;6239632;28;20297;-84
2023/01/28 17:41:26;;;;;;;4.33;2.20;;;;;;;;;;6222466;28;20296;-82
2023/01/28 17:44:32;;;;;;;4.80;2.07;;;;;;;;;;6239396;28;20477;-82
2023/01/28 17:47:37;;;;;;;2.30;2.10;;;;;;;;;;6239919;28;20606;-82
2023/01/28 17:50:44;;;;;;;2.47;2.30;;;;;;;;;;6239393;28;20309;-82
2023/01/28 17:53:51;;;;;;;4.53;2.47;;;;;;;;;;6238713;28;20299;-80
2023/01/28 17:56:57;;;;;;;5.43;2.70;;;;;;;;;;6222460;28;20305;-80
2023/01/28 18:00:02;;;;;;;5.37;2.80;;;;;;;;;;6239346;28;20296;-80
2023/01/28 18:03:16;;;;;;;2.90;2.53;;;;;;;;;;6220872;28;20585;-81
2023/01/28 18:06:23;;;;;;;6.63;2.93;;;;;;;;;;6240132;28;20301;-82
2023/01/28 18:09:29;;;;;;;6.23;2.90;;;;;;;;;;6220734;28;20549;-79
2023/01/28 18:12:36;;;;;;;3.97;2.63;;;;;;;;;;6236703;28;20297;-82
2023/01/28 18:15:41;;;;;;;3.97;2.83;;;;;;;;;;6239259;28;20299;-78
2023/01/28 18:18:46;;;;;;;5.90;2.60;;;;;;;;;;6239288;28;20296;-81
2023/01/28 18:21:57;;;;;;;6.13;2.40;;;;;;;;;;6239453;28;20308;-82
2023/01/28 18:25:03;;;;;;;3.87;2.17;;;;;;;;;;6238376;28;20549;-81
2023/01/28 18:28:08;;;;;;;4.20;2.50;;;;;;;;;;6228088;28;20633;-84
2023/01/28 18:31:14;;;;;;;3.73;2.33;;;;;;;;;;6214899;28;20321;-80
2023/01/28 18:34:20;;;;;;;3.17;2.20;;;;;;;;;;6216083;28;20293;-83
2023/01/28 18:37:27;;;;;;;2.30;2.20;;;;;;;;;;6216147;28;20304;-83
2023/01/28 18:40:32;;;;;;;4.53;2.50;;;;;;;;;;6215592;28;20293;-82
2023/01/28 18:43:37;;;;;;;3.00;2.70;;;;;;;;;;6215699;28;20369;-77
2023/01/28 18:46:42;;;;;;;8.30;2.83;;;;;;;;;;6213839;28;20432;-80
2023/01/28 18:49:47;;;;;;;3.80;2.23;;;;;;;;;;6213012;28;20588;-80
2023/01/28 18:52:55;;;;;;;7.00;2.57;;;;;;;;;;6213610;28;20328;-77
2023/01/28 18:56:02;;;;;;;4.43;2.23;;;;;;;;;;6212787;28;20306;-78
2023/01/28 18:59:09;;;;;;;19.83;8.83;;;;;;;;;;6212495;28;20806;-79
2023/01/28 19:02:15;;;;;;;17.13;9.27;;;;;;;;;;6196030;28;20578;-78
2023/01/28 19:05:21;;;;;;;7.33;2.57;;;;;;;;;;6212903;28;20382;-79
2023/01/28 19:08:28;;;;;;;6.83;2.17;;;;;;;;;;6195942;28;20292;-78
2023/01/28 19:11:33;;;;;;;3.30;2.30;;;;;;;;;;6226782;28;20288;-78
2023/01/28 19:14:38;;;;;;;8.20;3.03;;;;;;;;;;6236935;28;20289;-76
2023/01/28 19:17:44;;;;;;;3.33;2.57;;;;;;;;;;6220330;28;20306;-77
2023/01/28 19:20:49;;;;;;;4.20;2.70;;;;;;;;;;6237739;28;20290;-79
2023/01/28 19:23:57;;;;;;;6.10;2.70;;;;;;;;;;6236807;28;20306;-78
2023/01/28 19:27:02;;;;;;;2.77;2.37;;;;;;;;;;6237550;28;20301;-80